Flight Track Log - Related Links

Times and Time Zones

All times are in EDT time to prevent confusion due to time zone crossing. See the N6149S flight status page for this flight to view local times or setup timezone preferences in your user account.

Time Position Orientation Groundspeed Altitude Reporting Facility
EDT Latitude Longitude Course Direction KTS MPH feet Rate Location/Type
Thu 06:32:17 PM 39.3833 -84.4833 65° Northeast 98 113 2,500  Level Cincinnati TRACON
Thu 06:33:10 PM 39.3925 -84.4583 65° Northeast 105 121 3,000 667 Climbing Indianapolis Center
Thu 06:33:20 PM 39.3942 -84.4506 74° East 136 157 3,200 778 Climbing Indianapolis Center
Thu 06:34:04 PM 39.3986 -84.4217 79° East 109 125 3,700 581 Climbing Indianapolis Center
Thu 06:34:22 PM 39.4003 -84.4133 75° East 108 124 3,800 627 Climbing Indianapolis Center
Thu 06:35:11 PM 39.4011 -84.3786 88° East 111 128 4,400 581 Climbing Indianapolis Center
Thu 06:35:24 PM 39.4031 -84.3728 67° East 110 127 4,400 545 Level Indianapolis Center
Thu 06:36:06 PM 39.4050 -84.3414 85° East 113 130 4,900 581 Climbing Indianapolis Center
Thu 06:36:26 PM 39.4075 -84.3339 67° East 111 128 5,000 393 Climbing Indianapolis Center
Thu 06:37:07 PM 39.4111 -84.3044 81° East 108 124 5,300 387 Climbing Indianapolis Center
Thu 06:37:28 PM 39.4122 -84.2947 82° East 111 128 5,400 900 Climbing Indianapolis Center
Thu 06:38:07 PM 39.4178 -84.2622 78° East 114 131 6,200 968 Climbing Indianapolis Center
Thu 06:38:30 PM 39.4194 -84.2461 82° East 113 130 6,400 627 Climbing Indianapolis Center
Thu 06:39:14 PM 39.4231 -84.2142 82° East 122 140 6,900 484 Climbing Indianapolis Center
Thu 06:39:32 PM 39.4253 -84.2014 77° East 122 140 6,900 98 Level Indianapolis Center
Thu 06:40:15 PM 39.4303 -84.1642 80° East 148 170 7,000 97 Climbing Indianapolis Center
Thu 06:40:34 PM 39.4322 -84.1475 81° East 152 175 7,000 -98 Level Indianapolis Center
Thu 06:41:16 PM 39.4364 -84.1081 82° East 165 190 6,900  Descending Indianapolis Center
Thu 06:41:36 PM 39.4381 -84.0900 83° East 162 186 7,000 98 Climbing Indianapolis Center
Thu 06:42:17 PM 39.4411 -84.0439 85° East 165 190 7,000 -97 Level Indianapolis Center
Thu 06:42:38 PM 39.4431 -84.0331 77° East 162 186 6,900  Descending Indianapolis Center
Thu 06:43:17 PM 39.4472 -83.9853 84° East 167 192 7,000  Climbing Indianapolis Center
Thu 06:43:40 PM 39.4483 -83.9733 83° East 165 190 6,900 -98 Descending Indianapolis Center
Thu 06:44:18 PM 39.4575 -83.9272 76° East 163 188 6,900  Level Indianapolis Center
Thu 06:44:42 PM 39.4647 -83.9064 66° East 165 190 6,900 70 Level Indianapolis Center
Thu 06:45:44 PM 39.4842 -83.8572 63° Northeast 160 184 7,000 48 Climbing Indianapolis Center
Thu 06:46:46 PM 39.5067 -83.8100 58° Northeast 157 181 7,000  Level Indianapolis Center
Thu 06:47:48 PM 39.5344 -83.7692 49° Northeast 154 177 7,000  Level Indianapolis Center
Thu 06:48:33 PM 39.5533 -83.7319 57° Northeast 148 170 7,000 -97 Level Indianapolis Center
Thu 06:48:50 PM 39.5572 -83.7261 49° Northeast 149 171 6,900 -140 Descending Indianapolis Center
Thu 06:49:16 PM 39.5714 -83.6997 55° Northeast 149 171 6,900  Level Indianapolis Center
Thu 06:49:52 PM 39.5814 -83.6828 53° Northeast 149 171 6,900 90 Level Indianapolis Center
Thu 06:50:23 PM 39.5950 -83.6522 60° Northeast 147 169 7,000 97 Climbing Indianapolis Center
Thu 06:50:54 PM 39.6097 -83.6283 51° Northeast 151 174 7,000  Level Indianapolis Center
Thu 06:51:23 PM 39.6186 -83.6072 61° Northeast 150 173 7,000 -97 Level Indianapolis Center
Thu 06:51:56 PM 39.6306 -83.5819 58° Northeast 150 173 6,900 -98 Descending Indianapolis Center
Thu 06:52:24 PM 39.6403 -83.5592 61° Northeast 152 175 6,900  Level Indianapolis Center
Thu 06:52:58 PM 39.6528 -83.5367 54° Northeast 151 174 6,900 98 Level Indianapolis Center
Thu 06:53:25 PM 39.6639 -83.5114 60° Northeast 148 170 7,000  Climbing Indianapolis Center
Thu 06:53:59 PM 39.6747 -83.4922 54° Northeast 147 169 6,900  Descending Indianapolis Center
Thu 06:54:26 PM 39.6853 -83.4661 62° Northeast 148 170 7,000 97 Climbing Indianapolis Center
Thu 06:55:01 PM 39.6972 -83.4478 50° Northeast 148 170 7,000  Level Indianapolis Center
Thu 06:55:26 PM 39.7106 -83.4239 54° Northeast 148 170 7,000 -97 Level Indianapolis Center
Thu 06:56:03 PM 39.7244 -83.3958 57° Northeast 148 170 6,900  Descending Indianapolis Center
Thu 06:56:27 PM 39.7319 -83.3786 60° Northeast 145 167 7,000 97 Climbing Indianapolis Center
Thu 06:57:05 PM 39.7469 -83.3531 53° Northeast 146 168 7,000 -90 Level Indianapolis Center
Thu 06:57:34 PM 39.7597 -83.3314 53° Northeast 143 165 6,900  Descending Indianapolis Center
Thu 06:58:07 PM 39.7700 -83.3122 55° Northeast 143 165 7,000 98 Climbing Indianapolis Center
Thu 06:58:35 PM 39.7808 -83.2886 59° Northeast 140 161 7,000  Level Indianapolis Center
Thu 06:59:09 PM 39.7919 -83.2706 51° Northeast 141 162 7,000 -98 Level Indianapolis Center
Thu 06:59:36 PM 39.8036 -83.2489 55° Northeast 144 166 6,900 -98 Descending Indianapolis Center
Thu 07:00:10 PM 39.8147 -83.2292 54° Northeast 142 163 6,900  Level Indianapolis Center
Thu 07:00:37 PM 39.8267 -83.2061 56° Northeast 141 162 6,900  Level Indianapolis Center
Thu 07:01:12 PM 39.8381 -83.1894 48° Northeast 139 160 6,900  Level Indianapolis Center
Thu 07:01:38 PM 39.8517 -83.1639 55° Northeast 145 167 6,900  Level Indianapolis Center
Thu 07:02:14 PM 39.8650 -83.1389 55° Northeast 142 163 6,900  Level Indianapolis Center
Thu 07:02:39 PM 39.8747 -83.1214 54° Northeast 142 163 6,900  Level Indianapolis Center
Thu 07:03:16 PM 39.8869 -83.0967 57° Northeast 143 165 6,900  Level Indianapolis Center
Thu 07:03:45 PM 39.8981 -83.0761 55° Northeast 141 162 6,900  Level Indianapolis Center
Thu 07:04:17 PM 39.9092 -83.0539 57° Northeast 142 163 6,900 109 Level Indianapolis Center
Thu 07:04:40 PM 39.9167 -83.0356 62° Northeast 142 163 7,000 97 Climbing Indianapolis Center
Thu 07:05:19 PM 39.9294 -83.0106 56° Northeast 142 163 7,000  Level Indianapolis Center
Thu 07:05:47 PM 39.9403 -82.9875 58° Northeast 142 163 7,000  Level Indianapolis Center
Thu 07:06:21 PM 39.9514 -82.9675 54° Northeast 143 165 7,000  Level Indianapolis Center
Thu 07:06:41 PM 39.9583 -82.9494 63° Northeast 143 165 7,000 -97 Level Indianapolis Center
Thu 07:07:23 PM 39.9725 -82.9239 54° Northeast 143 165 6,900 -98 Descending Indianapolis Center
Thu 07:07:42 PM 39.9819 -82.9011 62° Northeast 139 160 6,900  Level Indianapolis Center
Thu 07:08:24 PM 39.9978 -82.8733 53° Northeast 138 159 6,900  Level Indianapolis Center
Thu 07:08:43 PM 40.0047 -82.8611 53° Northeast 145 167 6,900  Level Indianapolis Center
Thu 07:09:26 PM 40.0206 -82.8314 55° Northeast 142 163 6,900 109 Level Indianapolis Center
Thu 07:09:38 PM 40.0250 -82.8233 54° Northeast 141 162 7,000 97 Climbing Indianapolis Center
Thu 07:10:28 PM 40.0428 -82.7900 55° Northeast 140 161 7,000 -100 Level Indianapolis Center
Thu 07:10:38 PM 40.0475 -82.7833 47° Northeast 138 159 6,900 -85 Descending Indianapolis Center
Thu 07:11:39 PM 40.0706 -82.7406 55° Northeast 139 160 6,900 53 Level Indianapolis Center
Thu 07:12:31 PM 40.0872 -82.7078 56° Northeast 139 160 7,000  Climbing Indianapolis Center
Thu 07:12:40 PM 40.0933 -82.6975 52° Northeast 140 161 6,900  Descending Indianapolis Center
Thu 07:13:33 PM 40.1103 -82.6667 54° Northeast 141 162 7,000 98 Climbing Indianapolis Center
Thu 07:13:41 PM 40.1164 -82.6547 56° Northeast 140 161 7,000 -97 Level Indianapolis Center
Thu 07:14:35 PM 40.1317 -82.6244 57° Northeast 140 161 6,900  Descending Indianapolis Center
Thu 07:14:42 PM 40.1392 -82.6117 52° Northeast 141 162 7,000 98 Climbing Indianapolis Center
Thu 07:15:36 PM 40.1542 -82.5703 65° Northeast 141 162 7,000  Level Indianapolis Center
Thu 07:15:42 PM 40.1536 -82.5675 105° East 146 168 7,000 -98 Level Indianapolis Center
Thu 07:16:37 PM 40.1542 -82.5156 89° East 152 175 6,900 -107 Descending Indianapolis Center
Thu 07:16:38 PM 40.1539 -82.5158 217° Southwest 151 174 6,900  Level Indianapolis Center
Thu 07:17:38 PM 40.1608 -82.4647 80° East 144 166 6,900 97 Level Indianapolis Center
Thu 07:17:40 PM 40.1606 -82.4647 180° South 144 166 7,000  Climbing Indianapolis Center
Thu 07:18:38 PM 40.1614 -82.4128 89° East 149 171 6,900 -97 Descending Indianapolis Center
Thu 07:18:42 PM 40.1606 -82.4114 128° Southeast 147 169 6,900  Level Indianapolis Center
Thu 07:19:43 PM 40.1611 -82.3583 89° East 145 167 6,900 49 Level Indianapolis Center
Thu 07:20:45 PM 40.1631 -82.3069 87° East 142 163 7,000  Climbing Indianapolis Center
Thu 07:21:47 PM 40.1653 -82.2531 87° East 148 170 6,900 -48 Descending Indianapolis Center
Thu 07:22:49 PM 40.1708 -82.1906 83° East 144 166 6,900  Level Indianapolis Center
Thu 07:23:50 PM 40.1764 -82.1381 82° East 144 166 6,900  Level Indianapolis Center
Thu 07:24:52 PM 40.1800 -82.0853 85° East 146 168 6,900  Level Indianapolis Center
Thu 07:25:54 PM 40.1825 -82.0319 86° East 147 169 6,900  Level Indianapolis Center
Thu 07:26:55 PM 40.1867 -81.9775 84° East 150 173 6,900  Level Indianapolis Center
Thu 07:27:57 PM 40.1942 -81.9256 79° East 147 169 6,900  Level Indianapolis Center
Thu 07:28:59 PM 40.2047 -81.8736 75° East 148 170 6,900  Level Indianapolis Center
Thu 07:30:00 PM 40.2136 -81.8092 80° East 150 173 6,900  Level Indianapolis Center
Thu 07:31:02 PM 40.2189 -81.7547 83° East 152 175 6,900  Level Indianapolis Center
Thu 07:32:04 PM 40.2206 -81.7014 88° East 148 170 6,900  Level Indianapolis Center
Thu 07:33:06 PM 40.2186 -81.6464 93° East 150 173 6,900  Level Indianapolis Center
Thu 07:34:07 PM 40.2197 -81.5900 89° East 153 176 6,900  Level Indianapolis Center
Thu 07:35:09 PM 40.2236 -81.5369 84° East 147 169 6,900  Level Indianapolis Center
Thu 07:36:11 PM 40.2286 -81.4822 83° East 150 173 6,900  Level Indianapolis Center
Thu 07:37:12 PM 40.2314 -81.4294 86° East 145 167 6,900  Level Indianapolis Center
Thu 07:38:14 PM 40.2364 -81.3750 83° East 149 171 6,900  Level Indianapolis Center
Thu 07:39:16 PM 40.2361 -81.3094 90° East 153 176 6,900  Level Indianapolis Center
Thu 07:40:17 PM 40.2356 -81.2553 91° East 149 171 6,900  Level Indianapolis Center
Thu 07:41:19 PM 40.2378 -81.2019 87° East 147 169 6,900  Level Indianapolis Center
Thu 07:42:21 PM 40.2406 -81.1483 86° East 147 169 6,900  Level Indianapolis Center
Thu 07:43:27 PM 40.2472 -81.0908 81° East 152 175 6,900  Level Cleveland Center
Thu 07:44:29 PM 40.2547 -81.0375 80° East 150 173 6,900  Level Cleveland Center
Thu 07:45:31 PM 40.2631 -80.9742 80° East 149 171 6,900  Level Cleveland Center
Thu 07:46:33 PM 40.2683 -80.9200 83° East 150 173 6,900  Level Cleveland Center
Thu 07:47:35 PM 40.2744 -80.8667 81° East 149 171 6,900  Level Cleveland Center
Thu 07:48:37 PM 40.2797 -80.8117 83° East 152 175 6,900  Level Cleveland Center
Thu 07:49:39 PM 40.2869 -80.7578 80° East 152 175 6,900  Level Cleveland Center
Thu 07:50:41 PM 40.2928 -80.7036 82° East 151 174 6,900 -48 Level Cleveland Center
Thu 07:51:43 PM 40.2961 -80.6369 86° East 153 176 6,800  Descending Cleveland Center
Thu 07:52:45 PM 40.2994 -80.5814 85° East 153 176 6,900 -194 Climbing Cleveland Center
Thu 07:53:47 PM 40.3006 -80.5222 89° East 163 188 6,400 -484 Descending Cleveland Center
Thu 07:54:49 PM 40.2950 -80.4636 97° East 162 186 5,900 -242 Descending Cleveland Center
Thu 07:55:51 PM 40.2917 -80.4050 94° East 162 186 5,900 -290 Level Cleveland Center
Thu 07:56:53 PM 40.2872 -80.3464 96° East 165 190 5,300 -585 Descending Cleveland Center
Thu 07:57:54 PM 40.2831 -80.2764 94° East 164 189 4,700 -585 Descending Cleveland Center
Thu 07:58:56 PM 40.2800 -80.2178 94° East 164 189 4,100 -532 Descending Cleveland Center
Thu 07:59:58 PM 40.2786 -80.1617 92° East 158 182 3,600 -532 Descending Cleveland Center
Thu 08:01:00 PM 40.2811 -80.1061 87° East 156 180 3,000 -339 Descending Cleveland Center
Thu 08:02:02 PM 40.2831 -80.0417 88° East 152 175 2,900 -97 Descending Cleveland Center
Thu 08:03:04 PM 40.2836 -79.9897 89° East 147 169 2,800 -48 Descending Cleveland Center
Thu 08:04:06 PM 40.2842 -79.9361 89° East 147 169 2,800 48 Level Cleveland Center
Thu 08:05:09 PM 40.2847 -79.8836 89° East 146 168 2,900  Climbing Cleveland Center
Thu 08:06:11 PM 40.3017 -79.8375 64° Northeast 147 169 2,800 -290 Descending Cleveland Center
Thu 08:07:13 PM 40.3378 -79.8331 North 142 163 2,300 -484 Descending Cleveland Center
Thu 08:08:15 PM 40.3558 -79.8731 301° West 120 138 1,800 -435 Descending Cleveland Center
Thu 08:09:17 PM 40.3556 -79.9083 269° West 107 123 1,400 -339 Descending Cleveland Center
Thu 08:10:19 PM 40.3561 -79.9333 272° West 97 112 1,100 -290 Descending Cleveland Center

Login

Don't have an account? Register now (free) for customized features, flight alerts, and more!